Time;durP1;ratioP1;P1;durP2;ratioP2;P2;SDS_P1;SDS_P2;PMS_P1;PMS_P2;Temp;Humidity;BMP_temperature;BMP_pressure;BME280_temperature;BME280_humidity;BME280_pressure;Samples;Min_cycle;Max_cycle;Signal;HPM_P1;HPM_P2
2020/12/19 00:01:40;;;;;;;69.82;26.98;;;1.70;84.30;;;;;;5056676;28;20013;-77
2020/12/19 00:04:06;;;;;;;65.88;27.00;;;1.70;84.00;;;;;;5057095;28;20102;-77
2020/12/19 00:06:31;;;;;;;71.00;28.05;;;1.70;84.10;;;;;;5056785;28;20029;-77
2020/12/19 00:08:57;;;;;;;73.90;29.98;;;1.80;84.00;;;;;;5056695;28;20048;-77
2020/12/19 00:11:23;;;;;;;80.97;31.15;;;1.70;84.30;;;;;;5051977;28;20100;-77
2020/12/19 00:13:49;;;;;;;73.07;28.92;;;1.70;84.30;;;;;;5036630;28;20113;-77
2020/12/19 00:16:15;;;;;;;67.45;28.38;;;1.70;84.30;;;;;;5036956;28;20460;-77
2020/12/19 00:18:42;;;;;;;63.67;27.80;;;1.70;84.30;;;;;;5036492;28;20039;-77
2020/12/19 00:21:08;;;;;;;66.75;26.05;;;1.70;84.40;;;;;;5035299;28;20017;-78
2020/12/19 00:23:34;;;;;;;58.30;25.77;;;1.70;84.10;;;;;;5036794;28;20018;-78
2020/12/19 00:26:00;;;;;;;53.03;23.02;;;1.80;84.00;;;;;;5036366;28;20021;-77
2020/12/19 00:28:25;;;;;;;52.58;24.38;;;1.80;83.80;;;;;;5036339;28;20399;-78
2020/12/19 00:30:51;;;;;;;53.75;23.35;;;1.80;83.70;;;;;;5036703;28;20022;-78
2020/12/19 00:33:17;;;;;;;52.67;23.13;;;1.80;83.60;;;;;;5036561;28;20021;-77
2020/12/19 00:35:42;;;;;;;56.05;23.92;;;1.90;83.60;;;;;;5036384;28;20044;-78
2020/12/19 00:38:08;;;;;;;62.20;26.38;;;1.90;83.60;;;;;;5036211;28;20029;-78
2020/12/19 00:40:34;;;;;;;54.13;24.50;;;1.80;83.50;;;;;;5036093;28;20056;-78
2020/12/19 00:43:00;;;;;;;71.97;28.45;;;1.90;83.40;;;;;;5036398;28;20090;-77
2020/12/19 00:45:26;;;;;;;80.22;30.75;;;1.80;84.00;;;;;;5036170;28;20036;-77
2020/12/19 00:47:52;;;;;;;61.75;24.38;;;1.80;84.30;;;;;;5034858;28;20383;-78
2020/12/19 00:50:17;;;;;;;61.53;25.25;;;1.80;83.90;;;;;;5036259;28;20026;-78
2020/12/19 00:52:43;;;;;;;69.63;26.17;;;1.80;83.80;;;;;;5035977;28;20021;-77
2020/12/19 00:55:09;;;;;;;68.00;27.50;;;1.80;83.90;;;;;;5034757;28;20410;-78
2020/12/19 00:57:37;;;;;;;61.55;25.02;;;1.70;84.30;;;;;;5035783;28;20108;-78
2020/12/19 01:00:07;;;;;;;88.18;32.80;;;1.70;83.90;;;;;;5035880;28;20030;-78
2020/12/19 01:02:36;;;;;;;61.58;25.75;;;1.70;84.80;;;;;;5035884;28;20026;-78
2020/12/19 01:05:03;;;;;;;66.43;28.55;;;1.70;84.30;;;;;;5035736;28;20356;-78
2020/12/19 01:07:31;;;;;;;70.47;29.77;;;1.70;84.10;;;;;;5034305;28;20079;-78
2020/12/19 01:09:57;;;;;;;113.50;50.70;;;1.70;84.00;;;;;;5035711;28;20017;-78
2020/12/19 01:12:23;;;;;;;78.57;34.45;;;1.70;84.00;;;;;;5035633;28;20017;-78
2020/12/19 01:14:49;;;;;;;117.20;42.00;;;1.70;83.90;;;;;;5035561;28;20112;-78
2020/12/19 01:17:14;;;;;;;82.85;32.65;;;1.70;84.00;;;;;;5035637;28;20105;-78
2020/12/19 01:19:40;;;;;;;59.20;27.25;;;1.70;83.80;;;;;;5034086;28;20084;-78
2020/12/19 01:22:06;;;;;;;54.78;23.63;;;1.70;83.90;;;;;;5035942;28;20025;-78
2020/12/19 01:24:34;;;;;;;69.13;29.75;;;1.80;83.80;;;;;;5034049;28;20032;-78
2020/12/19 01:26:59;;;;;;;81.78;32.90;;;1.80;83.90;;;;;;5035614;28;20017;-78
2020/12/19 01:29:25;;;;;;;69.55;27.92;;;1.70;83.80;;;;;;5035496;28;20033;-78
2020/12/19 01:31:51;;;;;;;60.75;26.45;;;1.80;83.80;;;;;;5035247;28;20032;-78
2020/12/19 01:34:17;;;;;;;58.28;25.88;;;1.80;83.70;;;;;;5035212;28;20025;-78
2020/12/19 01:36:43;;;;;;;57.08;25.38;;;1.80;83.80;;;;;;5033746;28;20029;-78
2020/12/19 01:39:09;;;;;;;51.63;21.23;;;1.80;83.70;;;;;;5033737;28;20521;-79
2020/12/19 01:41:35;;;;;;;48.88;21.88;;;1.80;83.80;;;;;;5035022;28;20379;-78
2020/12/19 01:44:04;;;;;;;54.90;22.55;;;1.80;83.70;;;;;;5035077;28;20017;-78
2020/12/19 01:46:45;;;;;;;47.08;21.27;;;1.80;83.80;;;;;;5034859;28;20053;-78
2020/12/19 01:49:12;;;;;;;47.22;20.45;;;1.80;83.70;;;;;;5034870;28;20102;-78
2020/12/19 01:51:38;;;;;;;49.88;19.95;;;1.80;83.70;;;;;;5035132;28;20021;-78
2020/12/19 01:54:07;;;;;;;42.25;18.63;;;1.80;83.70;;;;;;5048458;28;20041;-78
2020/12/19 01:56:47;;;;;;;49.42;21.33;;;1.80;83.70;;;;;;5054703;28;20478;-78
2020/12/19 01:59:13;;;;;;;57.60;22.65;;;1.80;84.10;;;;;;5054438;28;20430;-78
2020/12/19 02:01:48;;;;;;;44.88;19.15;;;1.80;83.90;;;;;;5053255;28;20082;-78
2020/12/19 02:04:15;;;;;;;51.80;22.02;;;1.80;84.00;;;;;;5054924;28;20084;-78
2020/12/19 02:06:45;;;;;;;58.72;25.00;;;1.80;84.10;;;;;;5054752;28;20017;-78
2020/12/19 02:09:12;;;;;;;59.13;23.70;;;1.80;84.20;;;;;;5054515;28;20083;-78
2020/12/19 02:11:38;;;;;;;75.72;27.70;;;1.80;84.40;;;;;;5054298;28;20036;-78
2020/12/19 02:14:08;;;;;;;71.03;28.40;;;1.80;84.50;;;;;;5053113;28;20483;-78
2020/12/19 02:16:34;;;;;;;68.38;27.88;;;1.80;84.40;;;;;;5054510;28;20387;-78
2020/12/19 02:19:00;;;;;;;59.88;23.92;;;1.70;84.30;;;;;;5053106;28;20025;-78
2020/12/19 02:21:25;;;;;;;50.95;21.50;;;1.80;84.20;;;;;;5053316;28;20071;-77
2020/12/19 02:23:51;;;;;;;50.10;20.30;;;1.80;84.10;;;;;;5054162;28;20526;-78
2020/12/19 02:26:17;;;;;;;58.05;20.67;;;1.80;84.00;;;;;;5052871;28;20025;-78
2020/12/19 02:28:42;;;;;;;58.30;23.17;;;1.80;84.70;;;;;;5054080;28;20467;-78
2020/12/19 02:31:08;;;;;;;52.33;22.20;;;1.80;84.40;;;;;;5053850;28;20029;-78
2020/12/19 02:33:34;;;;;;;58.00;22.85;;;1.80;84.10;;;;;;5054080;28;20118;-78
2020/12/19 02:36:00;;;;;;;57.38;22.55;;;1.70;84.30;;;;;;5054287;28;20105;-78
2020/12/19 02:38:25;;;;;;;52.22;20.42;;;1.70;84.50;;;;;;5053923;28;20091;-78
2020/12/19 02:40:51;;;;;;;58.75;23.75;;;1.70;84.30;;;;;;5054094;28;20092;-77
2020/12/19 02:43:17;;;;;;;49.25;20.80;;;1.70;84.40;;;;;;5054162;28;20071;-78
2020/12/19 02:45:42;;;;;;;45.55;19.85;;;1.70;84.30;;;;;;5053705;28;20094;-77
2020/12/19 02:48:08;;;;;;;53.17;21.58;;;1.70;84.30;;;;;;5053672;28;20025;-78
2020/12/19 02:50:34;;;;;;;51.00;22.65;;;1.70;84.40;;;;;;5053470;28;20104;-77
2020/12/19 02:52:59;;;;;;;47.28;21.10;;;1.70;84.50;;;;;;5052106;28;20035;-78
2020/12/19 02:55:25;;;;;;;50.70;22.50;;;1.70;84.50;;;;;;5053421;28;20028;-78
2020/12/19 02:57:51;;;;;;;53.15;23.00;;;1.70;84.60;;;;;;5053049;28;20394;-77
2020/12/19 03:00:17;;;;;;;49.78;21.27;;;1.70;84.80;;;;;;5050825;28;20066;-78
2020/12/19 03:02:42;;;;;;;47.92;21.10;;;1.70;84.80;;;;;;5052965;28;20885;-77
2020/12/19 03:05:08;;;;;;;44.63;21.08;;;1.70;84.70;;;;;;5053016;28;20021;-77
2020/12/19 03:07:34;;;;;;;58.67;25.85;;;1.70;84.60;;;;;;5053004;28;20017;-78
2020/12/19 03:09:59;;;;;;;57.55;26.48;;;1.70;85.10;;;;;;5053051;28;20379;-78
2020/12/19 03:12:25;;;;;;;55.53;26.08;;;1.60;84.80;;;;;;5053164;28;20037;-78
2020/12/19 03:14:51;;;;;;;56.63;24.92;;;1.60;84.80;;;;;;5053220;28;20067;-78
2020/12/19 03:17:16;;;;;;;58.08;26.83;;;1.60;84.60;;;;;;5049727;28;20044;-78
2020/12/19 03:19:42;;;;;;;54.25;27.30;;;1.70;84.70;;;;;;5050739;28;20368;-77
2020/12/19 03:22:07;;;;;;;57.95;26.95;;;1.70;84.60;;;;;;5052058;28;20025;-77
2020/12/19 03:24:33;;;;;;;54.35;26.88;;;1.70;84.60;;;;;;5052118;28;20486;-78
2020/12/19 03:26:59;;;;;;;67.72;28.63;;;1.70;84.60;;;;;;5051087;28;20033;-77
2020/12/19 03:29:25;;;;;;;64.05;28.95;;;1.70;84.70;;;;;;5052797;28;20475;-77
2020/12/19 03:31:50;;;;;;;53.33;25.65;;;1.70;84.80;;;;;;5053293;28;20032;-77
2020/12/19 03:34:16;;;;;;;48.45;24.15;;;1.70;84.50;;;;;;5056915;28;20025;-78
2020/12/19 03:36:42;;;;;;;48.85;23.30;;;1.80;84.40;;;;;;5056903;28;20355;-78
2020/12/19 03:39:07;;;;;;;53.60;23.77;;;1.80;84.30;;;;;;5056601;28;20542;-77
2020/12/19 03:41:33;;;;;;;45.80;21.00;;;1.80;84.70;;;;;;5056865;28;20103;-77
2020/12/19 03:43:59;;;;;;;51.50;23.88;;;1.80;84.50;;;;;;5056656;28;20029;-78
2020/12/19 03:46:24;;;;;;;58.22;23.35;;;1.80;84.70;;;;;;5055389;28;20028;-77
2020/12/19 03:48:50;;;;;;;58.10;26.58;;;1.80;84.50;;;;;;5051377;28;20033;-77
2020/12/19 03:51:16;;;;;;;54.95;24.65;;;1.70;84.70;;;;;;5036520;28;20064;-77
2020/12/19 03:53:41;;;;;;;48.60;22.75;;;1.70;84.60;;;;;;5036721;28;20032;-77
2020/12/19 03:56:08;;;;;;;62.78;25.58;;;1.70;84.50;;;;;;5036687;28;20033;-78
2020/12/19 03:58:33;;;;;;;59.22;23.98;;;1.80;84.90;;;;;;5036370;28;20052;-77
2020/12/19 04:00:59;;;;;;;52.95;22.50;;;1.70;84.90;;;;;;5041209;28;20029;-77
2020/12/19 04:03:25;;;;;;;48.22;21.85;;;1.70;84.80;;;;;;5056352;28;20455;-78
2020/12/19 04:05:50;;;;;;;52.17;23.27;;;1.70;84.90;;;;;;5055113;28;20071;-78
2020/12/19 04:08:16;;;;;;;59.00;23.38;;;1.70;84.80;;;;;;5056348;28;20072;-78
2020/12/19 04:10:42;;;;;;;52.85;24.17;;;1.70;85.00;;;;;;5054952;28;20032;-78
2020/12/19 04:13:07;;;;;;;58.55;23.48;;;1.70;85.10;;;;;;5055995;28;20021;-78
2020/12/19 04:15:33;;;;;;;51.70;21.55;;;1.70;85.30;;;;;;5054950;28;20025;-77
2020/12/19 04:17:59;;;;;;;51.95;22.58;;;1.70;84.90;;;;;;5035636;28;20029;-78
2020/12/19 04:20:24;;;;;;;48.60;20.80;;;1.70;85.00;;;;;;5035929;28;20048;-77
2020/12/19 04:22:50;;;;;;;57.80;23.77;;;1.70;85.20;;;;;;5034558;28;20037;-78
2020/12/19 04:25:16;;;;;;;52.55;23.27;;;1.70;85.20;;;;;;5037379;28;20033;-78
2020/12/19 04:27:42;;;;;;;49.65;21.10;;;1.70;85.10;;;;;;5056056;28;20021;-77
2020/12/19 04:30:09;;;;;;;65.68;27.13;;;1.80;84.90;;;;;;5056037;28;20033;-78
2020/12/19 04:32:35;;;;;;;67.18;28.95;;;1.80;85.10;;;;;;5055707;28;20090;-77
2020/12/19 04:35:02;;;;;;;153.32;67.32;;;1.80;85.00;;;;;;5055810;28;20032;-77
2020/12/19 04:37:28;;;;;;;96.90;44.97;;;1.80;85.20;;;;;;5054454;28;20057;-77
2020/12/19 04:39:53;;;;;;;144.23;65.18;;;1.80;85.20;;;;;;5055613;28;20048;-78
2020/12/19 04:42:21;;;;;;;139.93;60.97;;;1.80;85.20;;;;;;5054091;28;20496;-78
2020/12/19 04:44:50;;;;;;;158.63;65.03;;;1.80;84.90;;;;;;5053889;28;20060;-77
2020/12/19 04:47:16;;;;;;;85.78;36.33;;;1.80;84.80;;;;;;5055557;28;20025;-77
2020/12/19 04:49:45;;;;;;;56.22;25.27;;;1.80;85.10;;;;;;5055511;28;20025;-77
2020/12/19 04:52:12;;;;;;;78.20;41.78;;;1.80;85.30;;;;;;5055269;28;20368;-77
2020/12/19 04:54:38;;;;;;;55.00;24.38;;;1.80;85.40;;;;;;5055266;28;20044;-77
2020/12/19 04:57:04;;;;;;;56.55;22.75;;;1.80;85.40;;;;;;5054010;28;20033;-78
2020/12/19 04:59:30;;;;;;;49.20;22.50;;;1.80;85.60;;;;;;5053596;28;20045;-78
2020/12/19 05:01:56;;;;;;;57.90;23.05;;;1.70;85.40;;;;;;5053889;28;20387;-78
2020/12/19 05:04:24;;;;;;;51.58;22.45;;;1.70;85.60;;;;;;5055298;28;20463;-78
2020/12/19 05:06:51;;;;;;;51.20;20.50;;;1.70;85.90;;;;;;5055093;28;20029;-77
2020/12/19 05:09:16;;;;;;;50.95;21.70;;;1.70;85.40;;;;;;5055197;28;20035;-78
2020/12/19 05:11:42;;;;;;;56.90;22.05;;;1.70;85.50;;;;;;5053399;28;20144;-78
2020/12/19 05:14:08;;;;;;;51.80;22.60;;;1.70;85.60;;;;;;5055073;28;20025;-78
2020/12/19 05:16:34;;;;;;;49.38;20.85;;;1.70;85.60;;;;;;5054820;28;20036;-78
2020/12/19 05:19:10;;;;;;;52.40;21.73;;;1.70;85.70;;;;;;5053655;28;20475;-78
2020/12/19 05:21:45;;;;;;;53.78;21.63;;;1.70;85.30;;;;;;5054559;28;20534;-77
2020/12/19 05:24:15;;;;;;;56.97;22.35;;;1.70;85.40;;;;;;5054676;28;20013;-78
2020/12/19 05:26:41;;;;;;;57.95;21.48;;;1.70;85.40;;;;;;5053305;28;20386;-78
2020/12/19 05:29:07;;;;;;;64.07;23.50;;;1.70;85.50;;;;;;5054566;28;20063;-78
2020/12/19 05:31:34;;;;;;;58.85;23.73;;;1.70;85.50;;;;;;5053286;28;20076;-78
2020/12/19 05:34:00;;;;;;;57.42;22.00;;;1.70;85.60;;;;;;5052698;28;20111;-78
2020/12/19 05:36:28;;;;;;;56.03;23.70;;;1.70;85.50;;;;;;5054620;28;20109;-78
2020/12/19 05:39:01;;;;;;;62.28;24.13;;;1.70;85.90;;;;;;5053240;28;20120;-78
2020/12/19 05:41:27;;;;;;;60.20;22.65;;;1.70;86.00;;;;;;5054638;28;20052;-78
2020/12/19 05:43:54;;;;;;;59.65;22.45;;;1.70;85.70;;;;;;5053272;28;20025;-78
2020/12/19 05:46:27;;;;;;;54.65;21.65;;;1.70;86.00;;;;;;5054441;28;20036;-78
2020/12/19 05:48:54;;;;;;;63.45;23.42;;;1.70;85.80;;;;;;5053299;28;20032;-78
2020/12/19 05:51:20;;;;;;;52.50;20.55;;;1.70;85.90;;;;;;5054351;28;20102;-78
2020/12/19 05:53:50;;;;;;;53.58;21.23;;;1.70;85.60;;;;;;5054286;28;20104;-78
2020/12/19 05:56:17;;;;;;;63.17;26.88;;;1.70;85.80;;;;;;5054508;28;20021;-78
2020/12/19 05:58:46;;;;;;;76.50;30.52;;;1.70;86.00;;;;;;5054082;28;20080;-78
2020/12/19 06:01:14;;;;;;;74.55;31.05;;;1.70;86.00;;;;;;5054332;28;20021;-78
2020/12/19 06:03:43;;;;;;;82.57;31.85;;;1.70;85.70;;;;;;5052914;28;20568;-77
2020/12/19 06:06:11;;;;;;;61.47;24.98;;;1.70;86.00;;;;;;5054259;28;20017;-78
2020/12/19 06:08:37;;;;;;;56.75;21.38;;;1.70;85.90;;;;;;5054210;28;20051;-77
2020/12/19 06:11:04;;;;;;;63.50;24.45;;;1.70;85.80;;;;;;5052840;28;20021;-77
2020/12/19 06:13:30;;;;;;;58.63;22.55;;;1.70;85.80;;;;;;5052692;28;20086;-78
2020/12/19 06:16:11;;;;;;;91.20;34.45;;;1.80;85.60;;;;;;5053743;28;20063;-78
2020/12/19 06:18:46;;;;;;;95.38;33.95;;;1.80;85.80;;;;;;5053878;28;20049;-78
2020/12/19 06:21:12;;;;;;;67.57;26.15;;;1.80;85.70;;;;;;5052721;28;20033;-78
2020/12/19 06:23:39;;;;;;;59.65;23.60;;;1.80;85.90;;;;;;5053710;28;20021;-77
2020/12/19 06:26:05;;;;;;;57.20;22.80;;;1.80;85.50;;;;;;5052444;28;20826;-77
2020/12/19 06:28:43;;;;;;;67.43;26.45;;;1.90;85.80;;;;;;5052296;28;20033;-77
2020/12/19 06:31:17;;;;;;;67.20;25.25;;;1.90;85.60;;;;;;5053662;28;20075;-77
2020/12/19 06:33:48;;;;;;;66.28;23.80;;;1.90;85.60;;;;;;5052575;28;20017;-77
2020/12/19 06:36:22;;;;;;;55.83;21.70;;;1.80;85.90;;;;;;5053755;28;20059;-77
2020/12/19 06:38:50;;;;;;;62.42;22.98;;;1.80;85.90;;;;;;5053588;28;20036;-77
2020/12/19 06:41:49;;;;;;;61.20;23.38;;;1.80;85.90;;;;;;5053585;28;20107;-78
2020/12/19 06:44:31;;;;;;;57.05;21.80;;;1.80;86.30;;;;;;5049156;28;20035;-77
2020/12/19 06:47:01;;;;;;;73.18;26.45;;;1.90;85.60;;;;;;5053476;28;20487;-77
2020/12/19 06:49:30;;;;;;;86.07;27.23;;;1.90;86.10;;;;;;5052888;28;20041;-78
2020/12/19 06:52:01;;;;;;;59.78;21.38;;;1.90;86.20;;;;;;5051892;28;20078;-78
2020/12/19 06:54:35;;;;;;;72.72;25.60;;;1.90;86.00;;;;;;5051906;28;20388;-77
2020/12/19 06:57:02;;;;;;;64.00;23.90;;;1.90;85.90;;;;;;5051963;28;20763;-77
2020/12/19 06:59:30;;;;;;;78.05;25.42;;;1.90;85.80;;;;;;5052766;28;20093;-77
2020/12/19 07:02:14;;;;;;;73.85;25.17;;;1.90;85.80;;;;;;5053287;28;20490;-77
2020/12/19 07:04:40;;;;;;;81.05;26.17;;;1.90;86.20;;;;;;5053221;28;20067;-77
2020/12/19 07:07:10;;;;;;;63.83;22.38;;;1.90;86.00;;;;;;5052392;28;20021;-77
2020/12/19 07:09:36;;;;;;;68.45;21.88;;;2.00;85.80;;;;;;5053146;28;20025;-77
2020/12/19 07:12:03;;;;;;;78.03;24.92;;;2.00;85.70;;;;;;5051915;28;20753;-77
2020/12/19 07:14:42;;;;;;;89.70;26.25;;;2.00;86.00;;;;;;5053103;28;20040;-78
2020/12/19 07:17:18;;;;;;;79.50;24.30;;;2.00;86.20;;;;;;5051934;28;20386;-77
2020/12/19 07:19:45;;;;;;;81.22;26.77;;;2.00;86.10;;;;;;5052907;28;20099;-78
2020/12/19 07:22:11;;;;;;;91.18;27.45;;;2.00;86.10;;;;;;5052969;28;20017;-77
2020/12/19 07:24:37;;;;;;;83.25;25.55;;;2.00;85.90;;;;;;5050720;28;20036;-77
2020/12/19 07:27:03;;;;;;;96.22;28.88;;;2.00;86.20;;;;;;5052837;28;20022;-78
2020/12/19 07:29:29;;;;;;;78.28;26.00;;;2.00;86.20;;;;;;5051505;28;20037;-78
2020/12/19 07:31:57;;;;;;;97.95;29.65;;;2.00;86.20;;;;;;5052916;28;20390;-77
2020/12/19 07:34:23;;;;;;;94.70;28.83;;;2.00;86.00;;;;;;5052818;28;20096;-77
2020/12/19 07:36:52;;;;;;;88.68;27.92;;;2.10;86.10;;;;;;5051706;28;20364;-77
2020/12/19 07:39:19;;;;;;;87.38;26.98;;;2.10;86.00;;;;;;5052640;28;20025;-77
2020/12/19 07:42:03;;;;;;;109.38;31.27;;;2.10;85.80;;;;;;5052784;28;20025;-77
2020/12/19 07:44:29;;;;;;;92.95;29.30;;;2.10;86.10;;;;;;5051656;28;20053;-78
2020/12/19 07:46:57;;;;;;;87.63;26.05;;;2.10;86.00;;;;;;5052332;28;20102;-78
2020/12/19 07:49:44;;;;;;;88.07;27.05;;;2.10;86.10;;;;;;5050886;28;20107;-77
2020/12/19 07:52:11;;;;;;;93.50;26.85;;;2.20;85.90;;;;;;5048584;28;20039;-77
2020/12/19 07:54:37;;;;;;;93.82;25.88;;;2.10;86.20;;;;;;5051282;28;20552;-78
2020/12/19 07:57:05;;;;;;;99.20;27.77;;;2.10;86.10;;;;;;5051421;28;20662;-78
2020/12/19 07:59:31;;;;;;;105.55;29.98;;;2.00;86.20;;;;;;5052477;28;20052;-77
2020/12/19 08:02:01;;;;;;;79.18;24.48;;;2.00;87.30;;;;;;5051038;28;20044;-77
2020/12/19 08:04:26;;;;;;;88.72;26.48;;;2.00;85.90;;;;;;5051230;28;20374;-77
2020/12/19 08:06:52;;;;;;;79.32;24.98;;;2.00;86.20;;;;;;5051301;28;20029;-77
2020/12/19 08:09:19;;;;;;;79.97;26.35;;;2.00;86.20;;;;;;5052352;28;20522;-77
2020/12/19 08:11:50;;;;;;;94.25;27.42;;;2.00;86.40;;;;;;5050953;28;20025;-76
2020/12/19 08:14:17;;;;;;;94.28;30.25;;;2.00;86.40;;;;;;5052497;28;20025;-77
2020/12/19 08:16:44;;;;;;;77.60;28.17;;;2.00;86.50;;;;;;5051233;28;20036;-77
2020/12/19 08:19:11;;;;;;;102.82;31.65;;;2.00;86.40;;;;;;5054470;28;20036;-77
2020/12/19 08:21:38;;;;;;;121.35;42.35;;;2.00;86.40;;;;;;5054643;28;20021;-77
2020/12/19 08:24:05;;;;;;;110.35;32.95;;;2.00;86.40;;;;;;5056082;28;20119;-77
2020/12/19 08:26:32;;;;;;;86.85;28.85;;;2.00;86.40;;;;;;5054606;28;20565;-77
2020/12/19 08:29:09;;;;;;;107.32;31.73;;;2.00;86.30;;;;;;5056073;28;20017;-77
2020/12/19 08:31:37;;;;;;;90.93;27.67;;;1.90;86.90;;;;;;5054852;28;20371;-77
2020/12/19 08:34:05;;;;;;;82.82;26.02;;;2.00;86.80;;;;;;5055562;28;20033;-77
2020/12/19 08:36:32;;;;;;;105.03;33.35;;;2.00;86.60;;;;;;5055588;28;20083;-77
2020/12/19 08:39:17;;;;;;;86.38;26.60;;;2.00;86.90;;;;;;5055652;28;20021;-77
2020/12/19 08:41:44;;;;;;;79.25;28.73;;;2.00;86.80;;;;;;5055681;28;20474;-77
2020/12/19 08:44:28;;;;;;;69.30;23.85;;;2.00;86.40;;;;;;5055428;28;20378;-77
2020/12/19 08:47:03;;;;;;;60.22;21.65;;;2.10;86.40;;;;;;5054340;28;20079;-77
2020/12/19 08:49:29;;;;;;;80.22;28.40;;;2.10;86.10;;;;;;5055269;28;20025;-77
2020/12/19 08:51:56;;;;;;;71.00;24.90;;;2.10;86.30;;;;;;5055333;28;20051;-77
2020/12/19 08:54:22;;;;;;;73.55;25.25;;;2.10;86.20;;;;;;5054907;28;20032;-77
2020/12/19 08:56:49;;;;;;;63.22;23.98;;;2.20;86.20;;;;;;5053406;28;20116;-77
2020/12/19 08:59:28;;;;;;;67.07;23.98;;;2.20;86.10;;;;;;5054239;28;20057;-77
2020/12/19 09:01:55;;;;;;;64.20;24.38;;;2.20;86.10;;;;;;5053364;28;20025;-77
2020/12/19 09:04:22;;;;;;;72.07;26.52;;;2.20;85.70;;;;;;5055022;28;20021;-77
2020/12/19 09:06:50;;;;;;;65.18;22.25;;;2.20;85.80;;;;;;5054331;28;20017;-77
2020/12/19 09:09:30;;;;;;;67.20;26.42;;;2.20;85.60;;;;;;5055082;28;20044;-77
2020/12/19 09:12:09;;;;;;;66.35;24.88;;;2.20;86.30;;;;;;5054866;28;20104;-77
2020/12/19 09:14:34;;;;;;;65.25;25.35;;;2.20;85.80;;;;;;5054798;28;20107;-77
2020/12/19 09:17:00;;;;;;;58.58;22.58;;;2.20;85.80;;;;;;5054486;28;20100;-77
2020/12/19 09:19:26;;;;;;;64.13;24.77;;;2.30;85.80;;;;;;5054698;28;20021;-77
2020/12/19 09:22:00;;;;;;;55.28;22.70;;;2.30;85.70;;;;;;5054801;28;20021;-77
2020/12/19 09:24:26;;;;;;;57.00;22.88;;;2.30;85.70;;;;;;5053450;28;20083;-77
2020/12/19 09:26:52;;;;;;;65.53;26.15;;;2.30;85.50;;;;;;5052949;28;20025;-77
2020/12/19 09:29:19;;;;;;;60.53;23.90;;;2.30;85.50;;;;;;5054183;28;20051;-77
2020/12/19 09:31:44;;;;;;;69.15;26.48;;;2.30;85.40;;;;;;5054698;28;20029;-77
2020/12/19 09:34:10;;;;;;;66.85;27.60;;;2.30;85.40;;;;;;5055184;28;20032;-77
2020/12/19 09:36:36;;;;;;;66.40;26.88;;;2.30;85.40;;;;;;5053367;28;20471;-78
2020/12/19 09:39:06;;;;;;;64.82;24.67;;;2.30;85.50;;;;;;5054368;28;20029;-77
2020/12/19 09:41:32;;;;;;;75.68;33.03;;;2.40;85.30;;;;;;5055045;28;20025;-77
2020/12/19 09:43:58;;;;;;;74.68;34.42;;;2.30;85.30;;;;;;5054732;28;20025;-77
2020/12/19 09:46:24;;;;;;;75.65;36.55;;;2.30;85.40;;;;;;5054566;28;20356;-77
2020/12/19 09:48:51;;;;;;;73.88;32.97;;;2.30;85.70;;;;;;5054823;28;20024;-77
2020/12/19 09:51:17;;;;;;;64.03;26.08;;;2.40;85.70;;;;;;5054741;28;20017;-77
2020/12/19 09:53:42;;;;;;;55.65;22.42;;;2.40;85.60;;;;;;5054978;28;20467;-77
2020/12/19 09:56:08;;;;;;;60.33;26.20;;;2.40;85.40;;;;;;5053544;28;20020;-77
2020/12/19 09:58:34;;;;;;;60.13;24.27;;;2.50;85.20;;;;;;5054719;28;20037;-77
2020/12/19 10:01:00;;;;;;;61.17;25.50;;;2.50;85.10;;;;;;5054658;28;20040;-77
2020/12/19 10:03:25;;;;;;;59.95;25.70;;;2.50;85.10;;;;;;5053328;28;20029;-77
2020/12/19 10:05:51;;;;;;;55.60;25.70;;;2.60;85.00;;;;;;5054580;28;20026;-77
2020/12/19 10:08:17;;;;;;;56.88;23.95;;;2.60;84.80;;;;;;5054681;28;20024;-77
2020/12/19 10:10:46;;;;;;;68.82;25.88;;;2.60;84.80;;;;;;5053406;28;20021;-77
2020/12/19 10:13:13;;;;;;;59.15;25.17;;;2.50;85.00;;;;;;5054396;28;20017;-77
2020/12/19 10:15:39;;;;;;;67.43;26.35;;;2.50;84.80;;;;;;5053294;28;20025;-79
2020/12/19 10:18:05;;;;;;;69.57;28.98;;;2.50;84.80;;;;;;5053392;28;20039;-77
2020/12/19 10:20:31;;;;;;;65.50;28.13;;;2.50;84.70;;;;;;5054441;28;20455;-77
2020/12/19 10:22:57;;;;;;;64.25;26.67;;;2.50;84.90;;;;;;5054259;28;20425;-77
2020/12/19 10:25:22;;;;;;;59.13;25.90;;;2.50;84.80;;;;;;5054061;28;20029;-77
2020/12/19 10:27:48;;;;;;;61.50;26.35;;;2.50;84.80;;;;;;5054132;28;20077;-77
2020/12/19 10:30:14;;;;;;;59.90;24.77;;;2.50;84.50;;;;;;5054215;28;20104;-77
2020/12/19 10:32:39;;;;;;;57.22;25.02;;;2.50;84.60;;;;;;5053975;28;20141;-77
2020/12/19 10:35:06;;;;;;;51.78;23.55;;;2.50;84.70;;;;;;5053063;28;20037;-77
2020/12/19 10:37:36;;;;;;;63.75;27.42;;;2.50;84.80;;;;;;5052746;28;20550;-77
2020/12/19 10:40:05;;;;;;;53.13;24.95;;;2.50;84.80;;;;;;5053891;28;20515;-77
2020/12/19 10:42:31;;;;;;;61.08;24.40;;;2.60;84.90;;;;;;5053409;28;20438;-77
2020/12/19 10:44:57;;;;;;;53.53;24.42;;;2.60;84.80;;;;;;5053972;28;20464;-77
2020/12/19 10:47:22;;;;;;;51.92;24.50;;;2.60;84.60;;;;;;5053794;28;20025;-77
2020/12/19 10:49:48;;;;;;;52.42;22.98;;;2.60;84.50;;;;;;5053832;28;20029;-77
2020/12/19 10:52:14;;;;;;;72.47;30.85;;;2.70;84.40;;;;;;5053675;28;20115;-77
2020/12/19 10:54:39;;;;;;;61.47;25.67;;;2.70;84.30;;;;;;5053529;28;20025;-77
2020/12/19 10:57:05;;;;;;;56.22;25.70;;;2.70;84.10;;;;;;5052328;28;20109;-77
2020/12/19 10:59:31;;;;;;;62.00;28.50;;;2.70;84.10;;;;;;5053352;28;20053;-77
2020/12/19 11:01:58;;;;;;;59.47;25.05;;;2.70;84.40;;;;;;5052890;28;20474;-77
2020/12/19 11:04:25;;;;;;;52.95;23.95;;;2.70;84.30;;;;;;5053687;28;20017;-77
2020/12/19 11:06:51;;;;;;;54.42;25.00;;;2.70;84.30;;;;;;5053786;28;20013;-77
2020/12/19 11:09:16;;;;;;;53.58;25.95;;;2.60;84.30;;;;;;5051635;28;20043;-74
2020/12/19 11:11:48;;;;;;;59.17;27.92;;;2.50;84.60;;;;;;5052044;28;20119;-77
2020/12/19 11:14:14;;;;;;;58.42;26.30;;;2.60;85.10;;;;;;5053242;28;20032;-76
2020/12/19 11:16:40;;;;;;;54.55;24.90;;;2.60;84.50;;;;;;5053108;28;20028;-77
2020/12/19 11:19:09;;;;;;;50.85;23.88;;;2.60;84.60;;;;;;5053133;28;20071;-76
2020/12/19 11:21:41;;;;;;;61.47;27.42;;;2.50;84.50;;;;;;5053196;28;20021;-76
2020/12/19 11:24:07;;;;;;;53.38;23.52;;;2.50;84.70;;;;;;5053371;28;20021;-76
2020/12/19 11:26:33;;;;;;;55.83;25.13;;;2.60;84.60;;;;;;5053197;28;20024;-76
2020/12/19 11:28:59;;;;;;;55.35;26.63;;;2.60;84.50;;;;;;5053208;28;20028;-76
2020/12/19 11:31:28;;;;;;;51.03;24.08;;;2.60;84.60;;;;;;5052978;28;20417;-76
2020/12/19 11:33:54;;;;;;;55.40;25.80;;;2.60;84.70;;;;;;5053114;28;20025;-76
2020/12/19 11:36:21;;;;;;;56.90;26.80;;;2.60;84.70;;;;;;5053104;28;20056;-75
2020/12/19 11:38:46;;;;;;;75.25;32.38;;;2.60;84.60;;;;;;5053515;28;20075;-76
2020/12/19 11:41:12;;;;;;;78.25;33.65;;;2.70;84.70;;;;;;5051877;28;20017;-76
2020/12/19 11:43:38;;;;;;;70.25;29.73;;;2.60;84.70;;;;;;5053468;28;20461;-77
2020/12/19 11:46:07;;;;;;;64.07;29.17;;;2.70;84.60;;;;;;5053407;28;20061;-76
2020/12/19 11:48:33;;;;;;;55.00;25.70;;;2.60;84.60;;;;;;5053049;28;20475;-77
2020/12/19 11:50:58;;;;;;;55.53;25.92;;;2.50;84.80;;;;;;5053176;28;20036;-77
2020/12/19 11:53:24;;;;;;;57.28;26.52;;;2.50;84.70;;;;;;5056067;28;20379;-77
2020/12/19 11:55:50;;;;;;;53.95;24.80;;;2.50;84.80;;;;;;5055818;28;20021;-77
2020/12/19 11:58:15;;;;;;;54.83;24.70;;;2.50;84.90;;;;;;5057035;28;20407;-77
2020/12/19 12:00:41;;;;;;;60.15;27.90;;;2.50;84.80;;;;;;5056810;28;20039;-77
2020/12/19 12:03:07;;;;;;;64.07;29.38;;;2.40;85.20;;;;;;5056891;28;20020;-77
2020/12/19 12:05:34;;;;;;;66.82;28.73;;;2.40;85.60;;;;;;5056845;28;20043;-77
2020/12/19 12:07:59;;;;;;;58.05;26.98;;;2.40;85.50;;;;;;5056824;28;20486;-77
2020/12/19 12:10:25;;;;;;;63.58;28.48;;;2.50;85.50;;;;;;5056792;28;20029;-77
2020/12/19 12:12:51;;;;;;;56.65;26.85;;;2.40;85.50;;;;;;5056543;28;20352;-77
2020/12/19 12:15:16;;;;;;;56.72;26.25;;;2.50;85.40;;;;;;5056627;28;20036;-77
2020/12/19 12:17:42;;;;;;;55.35;26.05;;;2.50;85.20;;;;;;5055251;28;20389;-77
2020/12/19 12:20:08;;;;;;;54.13;26.35;;;2.50;85.70;;;;;;5056740;28;20087;-77
2020/12/19 12:22:34;;;;;;;61.80;29.05;;;2.60;84.90;;;;;;5056534;28;20487;-79
2020/12/19 12:24:59;;;;;;;50.97;24.27;;;2.60;84.90;;;;;;5055120;28;20471;-77
2020/12/19 12:27:25;;;;;;;59.58;27.38;;;2.60;84.80;;;;;;5056968;28;20017;-77
2020/12/19 12:29:51;;;;;;;56.50;26.00;;;2.60;84.70;;;;;;5056294;28;20021;-77
2020/12/19 12:32:16;;;;;;;71.82;33.05;;;2.60;84.80;;;;;;5056438;28;20036;-77
2020/12/19 12:34:42;;;;;;;64.90;30.33;;;2.50;85.20;;;;;;5056442;28;20025;-77
2020/12/19 12:37:13;;;;;;;65.63;28.40;;;2.50;85.10;;;;;;5056541;28;20057;-77